Time;durP1;ratioP1;P1;durP2;ratioP2;P2;SDS_P1;SDS_P2;PMS_P1;PMS_P2;Temp;Humidity;BMP_temperature;BMP_pressure;BME280_temperature;BME280_humidity;BME280_pressure;Samples;Min_cycle;Max_cycle;Signal;HPM_P1;HPM_P2
2022/08/19 00:01:09;;;;;;;;;;;;;;;18.43;74.32;101293.06;5002668;28;19929;-58
2022/08/19 00:03:34;;;;;;;;;;;;;;;18.33;75.10;101289.19;5012467;28;19967;-58
2022/08/19 00:05:59;;;;;;;;;;;;;;;18.27;75.74;101291.69;4998066;28;19917;-57
2022/08/19 00:08:25;;;;;;;;;;;;;;;18.21;76.15;101292.53;5000692;28;19913;-58
2022/08/19 00:10:50;;;;;;;;;;;;;;;18.15;76.77;101290.66;4993823;28;20051;-58
2022/08/19 00:13:24;;;;;;;;;;;;;;;18.05;76.77;101292.13;5009138;28;19920;-59
2022/08/19 00:15:50;;;;;;;;;;;;;;;17.93;76.79;101286.56;5007362;28;20078;-58
2022/08/19 00:18:15;;;;;;;;;;;;;;;17.81;76.32;101297.09;5005927;28;20024;-58
2022/08/19 00:20:40;;;;;;;;;;;;;;;17.69;76.91;101292.56;5008390;28;19920;-58
2022/08/19 00:23:06;;;;;;;;;;;;;;;17.58;77.55;101285.88;4999119;28;20305;-58
2022/08/19 00:25:31;;;;;;;;;;;;;;;17.51;78.08;101293.94;5008859;28;20027;-59
2022/08/19 00:27:56;;;;;;;;;;;;;;;17.43;78.71;101294.16;5005316;28;19913;-59
2022/08/19 00:30:21;;;;;;;;;;;;;;;17.36;79.21;101287.94;5006793;28;19913;-58
2022/08/19 00:32:46;;;;;;;;;;;;;;;17.34;79.47;101292.66;5009766;28;20012;-59
2022/08/19 00:35:12;;;;;;;;;;;;;;;17.31;80.59;101293.91;5011146;28;20534;-58
2022/08/19 00:37:38;;;;;;;;;;;;;;;17.35;80.98;101288.97;5004783;28;20539;-58
2022/08/19 00:40:06;;;;;;;;;;;;;;;17.40;82.01;101291.88;5005837;28;19917;-59
2022/08/19 00:42:31;;;;;;;;;;;;;;;17.46;82.87;101293.72;5008835;28;19914;-58
2022/08/19 00:44:56;;;;;;;;;;;;;;;17.50;82.98;101302.19;5011469;28;19913;-58
2022/08/19 00:47:21;;;;;;;;;;;;;;;17.51;83.00;101293.94;5011129;28;19948;-58
2022/08/19 00:49:52;;;;;;;;;;;;;;;17.54;83.15;101298.91;5014009;28;20392;-58
2022/08/19 00:52:20;;;;;;;;;;;;;;;17.59;83.01;101292.91;5004617;28;19913;-57
2022/08/19 00:54:47;;;;;;;;;;;;;;;17.64;83.34;101291.28;5006816;28;19923;-59
2022/08/19 00:57:16;;;;;;;;;;;;;;;17.69;83.17;101288.00;5006307;28;19976;-58
2022/08/19 00:59:45;;;;;;;;;;;;;;;17.72;83.01;101284.91;5008634;28;20372;-58
2022/08/19 01:02:10;;;;;;;;;;;;;;;17.76;82.65;101279.94;5012774;28;19999;-57
2022/08/19 01:04:35;;;;;;;;;;;;;;;17.76;82.21;101288.00;5007784;28;20342;-57
2022/08/19 01:07:01;;;;;;;;;;;;;;;17.74;82.50;101290.06;4999793;28;19917;-58
2022/08/19 01:09:26;;;;;;;;;;;;;;;17.71;82.47;101290.47;4998723;28;19913;-57
2022/08/19 01:11:52;;;;;;;;;;;;;;;17.67;82.15;101292.75;5004619;28;20440;-59
2022/08/19 01:14:18;;;;;;;;;;;;;;;17.57;81.95;101290.44;5007301;28;19917;-58
2022/08/19 01:16:45;;;;;;;;;;;;;;;17.50;81.75;101291.47;5004211;28;19924;-58
2022/08/19 01:19:18;;;;;;;;;;;;;;;17.47;82.43;101298.06;5004910;28;19913;-59
2022/08/19 01:21:51;;;;;;;;;;;;;;;17.47;82.54;101292.69;5003021;28;20359;-59
2022/08/19 01:24:16;;;;;;;;;;;;;;;17.49;81.91;101306.75;5004114;28;19920;-58
2022/08/19 01:26:43;;;;;;;;;;;;;;;17.52;81.82;101295.59;5002694;28;19917;-58
2022/08/19 01:29:09;;;;;;;;;;;;;;;17.55;81.81;101294.34;5009461;28;19951;-58
2022/08/19 01:31:34;;;;;;;;;;;;;;;17.56;81.78;101299.53;5003492;28;19948;-58
2022/08/19 01:34:00;;;;;;;;;;;;;;;17.57;81.52;101294.97;5003478;28;20360;-57
2022/08/19 01:36:28;;;;;;;;;;;;;;;17.59;81.12;101292.91;5006297;28;19987;-58
2022/08/19 01:38:54;;;;;;;;;;;;;;;17.61;81.11;101294.34;5000455;28;19960;-59
2022/08/19 01:41:19;;;;;;;;;;;;;;;17.60;81.20;101297.25;5005413;28;19913;-57
2022/08/19 01:43:44;;;;;;;;;;;;;;;17.57;80.59;101298.50;4998012;28;19913;-57
2022/08/19 01:46:10;;;;;;;;;;;;;;;17.55;80.65;101288.97;5003165;28;20293;-58
2022/08/19 01:48:36;;;;;;;;;;;;;;;17.54;80.68;101293.53;5000458;28;19932;-57
2022/08/19 01:51:02;;;;;;;;;;;;;;;17.52;81.08;101292.91;5000932;28;19921;-58
2022/08/19 01:53:27;;;;;;;;;;;;;;;17.47;81.19;101284.66;5002943;28;20012;-57
2022/08/19 01:55:53;;;;;;;;;;;;;;;17.45;81.18;101286.72;5009537;28;20448;-59
2022/08/19 01:58:20;;;;;;;;;;;;;;;17.42;81.56;101278.25;5009399;28;19921;-58
2022/08/19 02:00:46;;;;;;;;;;;;;;;17.38;81.28;101272.47;5003816;28;19913;-58
2022/08/19 02:03:12;;;;;;;;;;;;;;;17.36;81.49;101279.06;5012289;28;19920;-57
2022/08/19 02:05:38;;;;;;;;;;;;;;;17.32;82.16;101290.19;5008090;28;20313;-58
2022/08/19 02:08:03;;;;;;;;;;;;;;;17.32;82.23;101289.34;5001716;28;19917;-58
2022/08/19 02:10:29;;;;;;;;;;;;;;;17.30;82.34;101294.94;5003803;28;19914;-59
2022/08/19 02:12:54;;;;;;;;;;;;;;;17.28;82.49;101301.53;4999186;28;19936;-59
2022/08/19 02:15:19;;;;;;;;;;;;;;;17.26;82.70;101299.06;5009206;28;19913;-57
2022/08/19 02:17:45;;;;;;;;;;;;;;;17.25;83.00;101301.94;5008299;28;20008;-58
2022/08/19 02:20:12;;;;;;;;;;;;;;;17.21;83.25;101304.22;5007325;28;20051;-58
2022/08/19 02:22:37;;;;;;;;;;;;;;;17.17;83.52;101299.47;5005969;28;20258;-58
2022/08/19 02:25:04;;;;;;;;;;;;;;;17.12;83.43;101296.56;5012975;28;19921;-58
2022/08/19 02:27:30;;;;;;;;;;;;;;;17.10;83.76;101307.50;5011795;28;19913;-59
2022/08/19 02:29:55;;;;;;;;;;;;;;;17.05;83.52;101307.25;5011691;28;19924;-59
2022/08/19 02:32:21;;;;;;;;;;;;;;;17.00;84.13;101305.19;5002171;28;19913;-57
2022/08/19 02:34:47;;;;;;;;;;;;;;;16.97;84.20;101308.25;5010518;28;19914;-58
2022/08/19 02:39:56;;;;;;;;;;;;;;;16.83;84.74;101308.44;5009639;28;20387;-58
2022/08/19 02:42:21;;;;;;;;;;;;;;;16.79;85.20;101308.00;5011406;28;19913;-58
2022/08/19 02:44:46;;;;;;;;;;;;;;;16.81;85.30;101310.50;5010390;28;19913;-57
2022/08/19 02:47:14;;;;;;;;;;;;;;;16.85;85.74;101304.53;5009984;28;20340;-58
2022/08/19 02:49:39;;;;;;;;;;;;;;;16.87;85.40;101310.50;5010393;28;19917;-58
2022/08/19 02:52:04;;;;;;;;;;;;;;;16.91;85.75;101313.63;5006875;28;20376;-58
2022/08/19 02:54:29;;;;;;;;;;;;;;;16.90;85.82;101315.47;5009993;28;20521;-58
2022/08/19 02:56:55;;;;;;;;;;;;;;;16.87;85.92;101318.56;5002532;28;19967;-57
2022/08/19 02:59:20;;;;;;;;;;;;;;;16.88;85.64;101320.22;5008515;28;20360;-57
2022/08/19 03:01:45;;;;;;;;;;;;;;;16.89;85.99;101324.53;5011043;28;19967;-58
2022/08/19 03:04:13;;;;;;;;;;;;;;;16.92;85.82;101321.47;5015178;28;20016;-59
2022/08/19 03:06:39;;;;;;;;;;;;;;;16.96;85.48;101311.16;5009048;28;19921;-57
2022/08/19 03:09:04;;;;;;;;;;;;;;;16.96;84.68;101308.47;5011710;28;19917;-58
2022/08/19 03:11:30;;;;;;;;;;;;;;;16.99;84.42;101308.06;5008325;28;19914;-59
2022/08/19 03:13:56;;;;;;;;;;;;;;;17.04;84.29;101313.66;5007263;28;19917;-58
2022/08/19 03:16:22;;;;;;;;;;;;;;;17.05;84.35;101304.56;5009725;28;19921;-58
2022/08/19 03:18:48;;;;;;;;;;;;;;;17.08;84.20;101308.72;5009345;28;19916;-59
2022/08/19 03:21:20;;;;;;;;;;;;;;;17.08;84.17;101314.94;5007200;28;20063;-59
2022/08/19 03:23:46;;;;;;;;;;;;;;;17.10;84.58;101320.91;5007549;28;19914;-58
2022/08/19 03:26:11;;;;;;;;;;;;;;;17.10;84.99;101315.56;5010802;28;19917;-58
2022/08/19 03:28:37;;;;;;;;;;;;;;;17.06;84.45;101319.66;5001152;28;20559;-60
2022/08/19 03:31:06;;;;;;;;;;;;;;;17.07;84.11;101315.97;5010495;28;20389;-58
2022/08/19 03:33:32;;;;;;;;;;;;;;;17.10;84.07;101312.03;5012731;28;20396;-58
2022/08/19 03:36:01;;;;;;;;;;;;;;;17.13;83.67;101311.63;5005780;28;19913;-58
2022/08/19 03:38:26;;;;;;;;;;;;;;;17.14;83.51;101305.22;5013773;28;20004;-58
2022/08/19 03:40:51;;;;;;;;;;;;;;;17.14;83.29;101316.78;5016228;28;20508;-58
2022/08/19 03:43:17;;;;;;;;;;;;;;;17.06;83.25;101324.19;5008091;28;19915;-58
2022/08/19 03:45:42;;;;;;;;;;;;;;;16.98;83.04;101320.66;5010339;28;19909;-58
2022/08/19 03:48:08;;;;;;;;;;;;;;;16.99;83.68;101319.63;5005167;28;19914;-59
2022/08/19 03:50:37;;;;;;;;;;;;;;;16.94;83.28;101295.25;5012482;28;19992;-58
2022/08/19 03:53:03;;;;;;;;;;;;;;;16.98;83.22;101303.72;5011136;28;20004;-58
2022/08/19 03:55:28;;;;;;;;;;;;;;;16.97;83.16;101302.91;5010564;28;21892;-58
2022/08/19 03:57:53;;;;;;;;;;;;;;;16.98;82.75;101301.03;5009290;28;19917;-58
2022/08/19 04:00:18;;;;;;;;;;;;;;;16.99;83.00;101303.53;5007042;28;19937;-59
2022/08/19 04:02:43;;;;;;;;;;;;;;;16.99;82.91;101302.69;5011038;28;19913;-58
2022/08/19 04:05:09;;;;;;;;;;;;;;;16.97;82.63;101300.22;5010209;28;19918;-58
2022/08/19 04:07:34;;;;;;;;;;;;;;;16.93;82.44;101303.50;5003381;28;20360;-58
2022/08/19 04:10:00;;;;;;;;;;;;;;;16.85;82.20;101301.84;5007712;28;19917;-59
2022/08/19 04:12:25;;;;;;;;;;;;;;;16.85;81.96;101312.56;5003179;28;19920;-59
2022/08/19 04:14:50;;;;;;;;;;;;;;;16.87;81.94;101309.69;5010387;28;19968;-58
2022/08/19 04:17:15;;;;;;;;;;;;;;;16.86;82.03;101308.84;5008483;28;19918;-59
2022/08/19 04:19:42;;;;;;;;;;;;;;;16.86;81.95;101303.50;5014979;28;19920;-58
2022/08/19 04:22:07;;;;;;;;;;;;;;;16.85;81.84;101298.31;5007067;28;19917;-58
2022/08/19 04:24:33;;;;;;;;;;;;;;;16.84;81.53;101302.88;5007947;28;19913;-58
2022/08/19 04:26:59;;;;;;;;;;;;;;;16.85;81.56;101299.16;5009963;28;20377;-58
2022/08/19 04:29:26;;;;;;;;;;;;;;;16.84;81.61;101302.88;5010629;28;20595;-58
2022/08/19 04:31:53;;;;;;;;;;;;;;;16.84;81.28;101299.34;5009207;28;19927;-57
2022/08/19 04:34:23;;;;;;;;;;;;;;;16.83;81.53;101298.53;5010984;28;19967;-58
2022/08/19 04:36:50;;;;;;;;;;;;;;;16.80;81.23;101288.19;5009033;28;19925;-58
2022/08/19 04:39:17;;;;;;;;;;;;;;;16.78;81.65;101294.78;5009293;28;19974;-58
2022/08/19 04:44:30;;;;;;;;;;;;;;;16.76;81.61;101297.66;5009234;28;19919;-59
2022/08/19 04:46:55;;;;;;;;;;;;;;;16.76;81.49;101292.28;5003776;28;19960;-59
2022/08/19 04:49:22;;;;;;;;;;;;;;;16.77;81.21;101296.66;5005426;28;19948;-58
2022/08/19 04:51:47;;;;;;;;;;;;;;;16.75;81.19;101309.41;5006757;28;19914;-57
2022/08/19 04:54:13;;;;;;;;;;;;;;;16.70;81.08;101309.19;5008531;28;19912;-58
2022/08/19 04:56:39;;;;;;;;;;;;;;;16.68;81.22;101305.88;5008460;28;19957;-59
2022/08/19 04:59:04;;;;;;;;;;;;;;;16.68;81.45;101312.06;5004446;28;20745;-58
2022/08/19 05:01:31;;;;;;;;;;;;;;;16.67;81.55;101307.72;5006177;28;19913;-58
2022/08/19 05:03:57;;;;;;;;;;;;;;;16.66;81.50;101316.81;5011423;28;20490;-58
2022/08/19 05:06:23;;;;;;;;;;;;;;;16.63;81.01;101314.50;5000403;28;20000;-58
2022/08/19 05:08:48;;;;;;;;;;;;;;;16.64;81.31;101318.00;5008723;28;20384;-58
2022/08/19 05:11:15;;;;;;;;;;;;;;;16.63;81.42;101319.03;5016920;28;19968;-58
2022/08/19 05:13:40;;;;;;;;;;;;;;;16.62;81.15;101317.38;5005714;28;19917;-55
2022/08/19 05:16:05;;;;;;;;;;;;;;;16.61;81.32;101319.22;5008053;28;19925;-58
2022/08/19 05:24:01;;;;;;;;;;;;;;;16.50;82.39;101343.94;5001551;28;20373;-58
2022/08/19 05:26:26;;;;;;;;;;;;;;;16.40;82.92;101349.63;5005908;28;19914;-57
2022/08/19 05:28:52;;;;;;;;;;;;;;;16.30;83.01;101349.16;4999647;28;20094;-59
2022/08/19 05:31:17;;;;;;;;;;;;;;;16.22;83.36;101351.97;5006714;28;20444;-58
2022/08/19 05:33:42;;;;;;;;;;;;;;;16.20;84.20;101350.53;5004194;28;19913;-59
2022/08/19 05:36:07;;;;;;;;;;;;;;;16.19;84.96;101352.38;5000379;28;20290;-58
2022/08/19 05:38:33;;;;;;;;;;;;;;;16.17;85.04;101354.38;5009214;28;20063;-57
2022/08/19 05:40:58;;;;;;;;;;;;;;;16.16;85.90;101355.41;4998836;28;19910;-58
2022/08/19 05:43:25;;;;;;;;;;;;;;;16.18;86.53;101358.72;4995750;28;19921;-58
2022/08/19 05:45:50;;;;;;;;;;;;;;;16.21;86.92;101362.91;4990879;28;20052;-58
2022/08/19 05:48:17;;;;;;;;;;;;;;;16.24;87.47;101359.81;4998341;28;20000;-58
2022/08/19 05:50:42;;;;;;;;;;;;;;;16.29;88.52;101368.09;4992772;28;19914;-58
2022/08/19 05:53:08;;;;;;;;;;;;;;;16.30;88.91;101361.72;4994697;28;20441;-58
2022/08/19 05:55:34;;;;;;;;;;;;;;;16.33;89.09;101359.47;4995071;28;19964;-58
2022/08/19 05:58:01;;;;;;;;;;;;;;;16.34;89.47;101357.63;4999553;28;20015;-58
2022/08/19 06:00:26;;;;;;;;;;;;;;;16.35;89.72;101353.91;4993655;28;20407;-56
2022/08/19 06:02:51;;;;;;;;;;;;;;;16.38;89.95;101354.34;4993517;28;19921;-54
2022/08/19 06:05:17;;;;;;;;;;;;;;;16.41;90.55;101362.00;5000113;28;19922;-55
2022/08/19 06:07:42;;;;;;;;;;;;;;;16.46;90.27;101355.22;4997560;28;19932;-56
2022/08/19 06:10:08;;;;;;;;;;;;;;;16.51;90.61;101352.78;4997609;28;19913;-56
2022/08/19 06:12:34;;;;;;;;;;;;;;;16.55;90.83;101354.06;5003593;28;19921;-55
2022/08/19 06:15:01;;;;;;;;;;;;;;;16.57;90.97;101347.47;4997903;28;19913;-57
2022/08/19 06:17:26;;;;;;;;;;;;;;;16.60;90.93;101351.59;4998198;28;20008;-58
2022/08/19 06:19:52;;;;;;;;;;;;;;;16.59;91.04;101345.41;4996544;28;20352;-58
2022/08/19 06:22:17;;;;;;;;;;;;;;;16.60;91.42;101341.72;5002993;28;19920;-58
2022/08/19 06:24:42;;;;;;;;;;;;;;;16.62;91.33;101342.34;5010199;28;19917;-57
2022/08/19 06:27:08;;;;;;;;;;;;;;;16.67;91.59;101336.41;5009533;28;19921;-58
2022/08/19 06:29:33;;;;;;;;;;;;;;;16.74;91.68;101347.97;5006394;28;19996;-57
2022/08/19 06:31:59;;;;;;;;;;;;;;;16.75;91.98;101338.91;5009794;28;19913;-58
2022/08/19 06:34:27;;;;;;;;;;;;;;;16.75;92.12;101338.09;5004585;28;19921;-58
2022/08/19 06:36:52;;;;;;;;;;;;;;;16.76;91.91;101337.88;5010708;28;19921;-57
2022/08/19 06:39:25;;;;;;;;;;;;;;;16.82;92.20;101347.84;5003855;28;19924;-57
2022/08/19 06:41:52;;;;;;;;;;;;;;;16.92;92.42;101352.81;5003916;28;19999;-57
2022/08/19 06:44:18;;;;;;;;;;;;;;;16.94;92.66;101354.28;5005483;28;19914;-58
2022/08/19 06:46:43;;;;;;;;;;;;;;;16.98;93.10;101349.34;4997497;28;19910;-58
2022/08/19 06:49:13;;;;;;;;;;;;;;;17.06;93.13;101345.66;5000493;28;19924;-58
2022/08/19 06:51:39;;;;;;;;;;;;;;;17.11;93.20;101344.03;5001995;28;19929;-58
2022/08/19 06:54:04;;;;;;;;;;;;;;;17.18;93.14;101354.78;5006003;28;19917;-58
2022/08/19 06:56:34;;;;;;;;;;;;;;;17.22;93.36;101356.88;5010084;28;20407;-57
2022/08/19 06:59:10;;;;;;;;;;;;;;;17.26;92.91;101355.44;5010657;28;19909;-57
2022/08/19 07:01:40;;;;;;;;;;;;;;;17.32;92.16;101354.63;5004895;28;20000;-58
2022/08/19 07:04:06;;;;;;;;;;;;;;;17.38;92.57;101357.56;4970472;28;1018352;-58
2022/08/19 07:06:31;;;;;;;;;;;;;;;17.32;92.54;101359.16;5010075;28;19913;-57
2022/08/19 07:08:57;;;;;;;;;;;;;;;17.30;93.01;101367.41;5008623;28;20381;-58
2022/08/19 07:11:23;;;;;;;;;;;;;;;17.22;92.62;101350.66;5011873;28;19924;-59
2022/08/19 07:13:48;;;;;;;;;;;;;;;17.23;92.71;101363.88;5006452;28;19913;-58
2022/08/19 07:16:14;;;;;;;;;;;;;;;17.21;93.18;101365.94;5009247;28;19917;-58
2022/08/19 07:18:39;;;;;;;;;;;;;;;17.22;93.01;101366.78;5011544;28;19919;-57
2022/08/19 07:21:09;;;;;;;;;;;;;;;17.24;92.93;101357.50;5010432;28;19920;-59
2022/08/19 07:23:34;;;;;;;;;;;;;;;17.32;93.25;101364.53;5009938;28;19913;-58
2022/08/19 07:26:07;;;;;;;;;;;;;;;17.37;93.40;101367.47;5015245;28;19953;-58
2022/08/19 07:28:33;;;;;;;;;;;;;;;17.48;93.85;101372.22;5005528;28;20000;-58
2022/08/19 07:30:58;;;;;;;;;;;;;;;17.53;93.34;101367.06;5010315;28;20488;-58
2022/08/19 07:33:23;;;;;;;;;;;;;;;17.57;93.06;101372.84;5006675;28;20547;-58
2022/08/19 07:35:49;;;;;;;;;;;;;;;17.61;93.03;101380.31;5008726;28;20421;-58
2022/08/19 07:38:15;;;;;;;;;;;;;;;17.67;92.55;101388.59;5010148;28;19909;-58
2022/08/19 07:40:41;;;;;;;;;;;;;;;17.73;92.06;101383.25;5011234;28;19909;-57
2022/08/19 07:43:06;;;;;;;;;;;;;;;17.73;92.62;101380.59;5008545;28;19909;-58
2022/08/19 07:45:32;;;;;;;;;;;;;;;17.73;92.44;101369.00;5004321;28;19909;-58
2022/08/19 07:47:57;;;;;;;;;;;;;;;17.78;92.55;101377.28;5005721;28;19965;-57
2022/08/19 07:50:22;;;;;;;;;;;;;;;17.78;92.39;101377.28;5003207;28;19914;-58
2022/08/19 07:52:49;;;;;;;;;;;;;;;17.80;92.57;101392.16;5008048;28;20372;-57
2022/08/19 07:55:15;;;;;;;;;;;;;;;17.82;92.63;101390.09;5010871;28;19913;-57
2022/08/19 07:57:40;;;;;;;;;;;;;;;17.87;92.89;101400.22;5006666;28;20277;-58
2022/08/19 08:00:06;;;;;;;;;;;;;;;17.93;92.49;101400.25;5001536;28;19917;-56
2022/08/19 08:02:31;;;;;;;;;;;;;;;17.97;92.47;101397.97;5007178;28;20003;-57
2022/08/19 08:10:24;;;;;;;;;;;;;;;18.13;92.08;101413.69;5015774;28;19916;-57
2022/08/19 08:12:50;;;;;;;;;;;;;;;18.12;91.72;101405.81;5011646;28;19913;-58
2022/08/19 08:15:16;;;;;;;;;;;;;;;18.10;91.67;101397.97;5001847;28;19909;-58
2022/08/19 08:17:42;;;;;;;;;;;;;;;18.13;91.56;101407.47;5006523;28;19921;-58
2022/08/19 08:20:07;;;;;;;;;;;;;;;18.14;91.54;101412.66;5009247;28;19921;-58
2022/08/19 08:25:19;;;;;;;;;;;;;;;18.20;91.33;101408.31;5013684;28;19920;-57
2022/08/19 08:27:45;;;;;;;;;;;;;;;18.23;90.72;101414.13;5013484;28;19922;-58
2022/08/19 08:30:12;;;;;;;;;;;;;;;18.26;90.96;101418.25;5005515;28;19916;-57
2022/08/19 08:32:38;;;;;;;;;;;;;;;18.30;90.72;101434.78;4996876;28;19909;-57
2022/08/19 08:35:04;;;;;;;;;;;;;;;18.33;90.78;101431.69;5003765;28;19920;-58
2022/08/19 08:37:30;;;;;;;;;;;;;;;18.30;90.18;101441.00;4999072;28;19914;-57
2022/08/19 08:39:55;;;;;;;;;;;;;;;18.30;90.09;101440.19;4995416;28;19917;-58
2022/08/19 08:42:32;;;;;;;;;;;;;;;18.32;89.99;101433.56;4993753;28;20436;-57
2022/08/19 08:45:02;;;;;;;;;;;;;;;18.36;90.08;101431.28;4997549;28;19931;-58
2022/08/19 08:47:32;;;;;;;;;;;;;;;18.40;90.34;101446.78;4995690;28;19909;-58
2022/08/19 08:49:59;;;;;;;;;;;;;;;18.41;89.96;101447.59;4994339;28;19921;-58
2022/08/19 08:52:26;;;;;;;;;;;;;;;18.41;89.70;101451.13;4992693;28;19910;-58
2022/08/19 08:54:54;;;;;;;;;;;;;;;18.47;89.92;101444.91;4996138;28;19960;-58
2022/08/19 08:57:34;;;;;;;;;;;;;;;18.54;89.82;101448.44;4992654;28;19917;-56
2022/08/19 09:00:03;;;;;;;;;;;;;;;18.58;89.59;101448.84;4992734;28;19960;-57
2022/08/19 09:02:28;;;;;;;;;;;;;;;18.63;89.20;101445.56;4994046;28;19914;-58
2022/08/19 09:04:54;;;;;;;;;;;;;;;18.67;89.29;101442.25;4993005;28;19919;-59
2022/08/19 09:07:42;;;;;;;;;;;;;;;18.72;89.04;101438.91;4994375;28;19916;-59
2022/08/19 09:10:27;;;;;;;;;;;;;;;18.74;88.86;101437.66;4990774;28;19961;-58
2022/08/19 09:13:12;;;;;;;;;;;;;;;18.76;88.80;101438.28;4998908;28;19913;-59
2022/08/19 09:15:44;;;;;;;;;;;;;;;18.79;88.59;101445.97;5007740;28;19955;-58
2022/08/19 09:18:09;;;;;;;;;;;;;;;18.83;88.36;101441.81;5009239;28;19924;-58
2022/08/19 09:20:34;;;;;;;;;;;;;;;18.86;88.04;101440.56;5008912;28;19917;-58
2022/08/19 09:22:59;;;;;;;;;;;;;;;18.90;88.23;101435.59;5010926;28;20453;-59
2022/08/19 09:25:25;;;;;;;;;;;;;;;18.91;88.06;101446.13;5011697;28;19928;-58
2022/08/19 09:27:53;;;;;;;;;;;;;;;18.95;87.93;101447.38;5006476;28;19920;-57
2022/08/19 09:30:25;;;;;;;;;;;;;;;18.95;87.61;101450.06;5008071;28;20404;-58
2022/08/19 09:32:54;;;;;;;;;;;;;;;18.93;87.43;101449.44;5007904;28;19920;-58
2022/08/19 09:35:21;;;;;;;;;;;;;;;18.96;87.38;101453.56;5009431;28;19920;-58
2022/08/19 09:37:47;;;;;;;;;;;;;;;19.00;87.28;101449.41;5011990;28;19914;-58
2022/08/19 09:40:12;;;;;;;;;;;;;;;19.01;87.18;101451.91;5009011;28;19917;-58
2022/08/19 09:42:38;;;;;;;;;;;;;;;19.06;87.28;101457.47;5013441;28;20401;-58
2022/08/19 09:45:04;;;;;;;;;;;;;;;19.12;87.08;101450.44;5007514;28;19917;-58
2022/08/19 09:47:29;;;;;;;;;;;;;;;19.13;87.45;101452.91;5009142;28;19916;-58
2022/08/19 09:49:54;;;;;;;;;;;;;;;19.17;87.03;101458.69;5006559;28;19913;-58
2022/08/19 09:52:20;;;;;;;;;;;;;;;19.10;86.72;101447.97;5014684;28;20311;-58
2022/08/19 09:54:45;;;;;;;;;;;;;;;19.17;86.82;101458.69;5003267;28;20001;-58
2022/08/19 09:57:10;;;;;;;;;;;;;;;19.17;86.28;101464.09;5005479;28;19951;-58
2022/08/19 09:59:35;;;;;;;;;;;;;;;19.21;86.40;101467.19;5003818;28;19917;-58
2022/08/19 10:02:01;;;;;;;;;;;;;;;19.28;86.36;101459.91;5011596;28;19919;-58
2022/08/19 10:05:47;;;;;;;;;;;;;;;19.40;86.67;101469.00;5010354;28;19936;-57
2022/08/19 10:07:11;;;;;;;;;;;;;;;19.53;86.00;101465.41;5004951;28;19914;-59
2022/08/19 10:09:36;;;;;;;;;;;;;;;19.61;85.72;101463.31;5005171;28;19917;-58
2022/08/19 10:12:03;;;;;;;;;;;;;;;19.65;85.07;101463.69;5004209;28;19960;-58
2022/08/19 10:14:28;;;;;;;;;;;;;;;19.70;84.94;101469.28;5009237;28;19914;-57
2022/08/19 10:16:53;;;;;;;;;;;;;;;19.72;84.25;101478.00;5005763;28;19924;-58
2022/08/19 10:19:21;;;;;;;;;;;;;;;19.69;84.19;101464.94;5006074;28;19909;-58
2022/08/19 10:21:46;;;;;;;;;;;;;;;19.69;84.27;101462.25;5007927;28;20060;-58
2022/08/19 10:24:11;;;;;;;;;;;;;;;19.68;84.01;101463.28;5010022;28;20373;-58
2022/08/19 10:26:38;;;;;;;;;;;;;;;19.70;84.12;101462.03;5008601;28;19996;-58
2022/08/19 10:29:04;;;;;;;;;;;;;;;19.68;83.84;101457.91;5014671;28;20336;-58
2022/08/19 10:31:31;;;;;;;;;;;;;;;19.71;84.15;101450.22;5006564;28;19909;-58
2022/08/19 10:33:59;;;;;;;;;;;;;;;19.79;83.76;101446.44;5006952;28;19909;-58
2022/08/19 10:36:26;;;;;;;;;;;;;;;19.86;83.57;101447.22;5002759;28;19913;-58
2022/08/19 10:38:53;;;;;;;;;;;;;;;19.94;83.13;101446.13;5006688;28;19956;-58
2022/08/19 10:41:19;;;;;;;;;;;;;;;20.04;83.04;101454.56;5006107;28;20393;-57
2022/08/19 10:43:45;;;;;;;;;;;;;;;20.15;82.73;101453.84;5003998;28;20388;-58
2022/08/19 10:46:11;;;;;;;;;;;;;;;20.20;82.09;101458.59;5010526;28;19913;-57
2022/08/19 10:48:37;;;;;;;;;;;;;;;20.26;82.28;101455.03;5006974;28;20384;-58
2022/08/19 10:53:46;;;;;;;;;;;;;;;20.35;81.43;101451.84;5014121;28;19916;-58
2022/08/19 10:58:57;;;;;;;;;;;;;;;20.43;80.98;101439.97;5005281;28;19983;-58
2022/08/19 11:01:22;;;;;;;;;;;;;;;20.55;80.70;101438.22;5009906;28;19920;-57
2022/08/19 11:03:47;;;;;;;;;;;;;;;20.69;80.75;101439.72;5015465;28;20403;-57
2022/08/19 11:06:12;;;;;;;;;;;;;;;20.80;79.76;101437.34;5012122;28;19980;-56
2022/08/19 11:08:37;;;;;;;;;;;;;;;20.83;79.58;101436.91;5006927;28;19921;-57
2022/08/19 11:11:03;;;;;;;;;;;;;;;20.90;79.48;101438.47;5010019;28;19917;-57
2022/08/19 11:13:33;;;;;;;;;;;;;;;20.98;79.12;101432.78;5010121;28;20360;-57
2022/08/19 11:16:03;;;;;;;;;;;;;;;21.10;79.22;101435.53;5008410;28;20379;-58
2022/08/19 11:18:29;;;;;;;;;;;;;;;21.13;78.16;101439.69;5008148;28;20337;-58
2022/08/19 11:20:54;;;;;;;;;;;;;;;21.09;77.98;101433.91;5005936;28;19949;-57
2022/08/19 11:23:19;;;;;;;;;;;;;;;21.13;77.98;101432.41;5015065;28;20467;-58
2022/08/19 11:25:45;;;;;;;;;;;;;;;21.24;78.11;101437.09;4995973;28;19909;-58
2022/08/19 11:28:10;;;;;;;;;;;;;;;21.28;77.51;101438.28;4998598;28;19910;-58
2022/08/19 11:30:36;;;;;;;;;;;;;;;21.32;77.65;101444.03;4998709;28;19928;-57
2022/08/19 11:33:02;;;;;;;;;;;;;;;21.39;76.89;101439.38;4995250;28;19955;-57
2022/08/19 11:35:27;;;;;;;;;;;;;;;21.48;76.95;101426.41;4994619;28;19949;-58
2022/08/19 11:37:53;;;;;;;;;;;;;;;21.67;76.79;101427.16;4996331;28;20479;-59
2022/08/19 11:40:18;;;;;;;;;;;;;;;21.74;75.83;101412.50;4994936;28;19910;-58
2022/08/19 11:42:56;;;;;;;;;;;;;;;21.85;75.20;101410.88;4995661;28;19917;-58
2022/08/19 11:45:22;;;;;;;;;;;;;;;21.95;74.10;101411.97;4997866;28;20327;-58
2022/08/19 11:47:47;;;;;;;;;;;;;;;22.04;73.85;101412.50;5010145;28;20452;-58
2022/08/19 11:50:13;;;;;;;;;;;;;;;22.18;73.76;101413.09;5009749;28;20126;-56
2022/08/19 11:52:39;;;;;;;;;;;;;;;22.32;73.36;101411.00;5000494;28;19924;-57
2022/08/19 11:55:05;;;;;;;;;;;;;;;22.54;73.69;101410.16;5013130;28;19909;-58
2022/08/19 11:57:30;;;;;;;;;;;;;;;22.72;72.11;101417.34;5010883;28;19966;-58
2022/08/19 11:59:55;;;;;;;;;;;;;;;22.80;71.97;101422.41;5011218;28;19913;-58
2022/08/19 12:02:21;;;;;;;;;;;;;;;22.82;70.21;101419.47;5006840;28;19910;-58
2022/08/19 12:04:47;;;;;;;;;;;;;;;22.79;70.24;101425.34;5010987;28;19967;-59
2022/08/19 12:07:12;;;;;;;;;;;;;;;22.77;70.00;101419.34;5013233;28;19913;-58
2022/08/19 12:09:38;;;;;;;;;;;;;;;22.79;70.40;101428.06;5010718;28;19917;-58
2022/08/19 12:12:04;;;;;;;;;;;;;;;22.86;69.80;101415.25;5004228;28;19917;-58
2022/08/19 12:14:31;;;;;;;;;;;;;;;22.92;69.42;101422.44;5011742;28;20284;-58
2022/08/19 12:16:56;;;;;;;;;;;;;;;22.89;69.00;101424.78;5001433;28;20385;-59
2022/08/19 12:19:22;;;;;;;;;;;;;;;22.89;69.27;101419.38;5009439;28;19956;-58
2022/08/19 12:21:47;;;;;;;;;;;;;;;22.96;69.12;101425.47;5002515;28;19917;-57
2022/08/19 12:24:13;;;;;;;;;;;;;;;23.02;69.28;101419.94;5008039;28;20372;-58
2022/08/19 12:26:38;;;;;;;;;;;;;;;23.12;68.82;101420.13;5004318;28;19917;-57
2022/08/19 12:29:03;;;;;;;;;;;;;;;23.13;68.32;101416.38;5007182;28;20389;-59
2022/08/19 12:31:29;;;;;;;;;;;;;;;23.13;68.65;101410.97;5000513;28;19912;-58
2022/08/19 12:33:54;;;;;;;;;;;;;;;22.99;68.15;101408.75;5001452;28;19924;-58
2022/08/19 12:36:21;;;;;;;;;;;;;;;22.99;68.71;101408.75;5004781;28;19914;-58
2022/08/19 12:38:46;;;;;;;;;;;;;;;23.00;68.97;101399.56;4999743;28;19913;-58
2022/08/19 12:41:14;;;;;;;;;;;;;;;22.99;69.02;101406.88;5000285;28;19920;-59
2022/08/19 12:43:39;;;;;;;;;;;;;;;23.04;68.66;101398.84;5008217;28;20308;-58
2022/08/19 12:46:05;;;;;;;;;;;;;;;23.03;68.68;101399.06;5012087;28;20389;-58
2022/08/19 12:48:30;;;;;;;;;;;;;;;22.95;68.73;101403.00;5006458;28;19910;-58
2022/08/19 12:50:56;;;;;;;;;;;;;;;22.81;68.90;101402.41;5010543;28;19912;-58
2022/08/19 12:53:21;;;;;;;;;;;;;;;22.73;69.15;101413.59;5017042;28;19909;-59
2022/08/19 12:55:46;;;;;;;;;;;;;;;22.65;69.37;101411.25;5006012;28;19956;-59